Moby Aki — IBVV — position and weather

sailwx.info

Track history (hours):
 
Tides and Currents Weather Stations Pressure Air Temp Water Temp Dewpoint Dewpoint Depression Visibility Wind Speed Wind Dir Waves Ship Positions

Moby Aki

Last reported at 2016-Jul-25 21:33 UTC. Time now 2016-Jul-25 22:00 UTC.
Position N 43°33' E 010°18'.

Length 175 m; draft 6.8 m.

Type: Ship. MMSI: 247132400.

Date/timePositionNaut miles runAvg speedWind from/ knotsBaromVisibWave heightAir tempDewpointWater temp
2016-Jul-25 21:33N 43°33' E 010°18'0 0.2
2016-Jul-25 20:33N 43°33' E 010°18'1817.8
2016-Jul-25 19:34N 43°17' E 010°08'2626.3
2016-Jul-25 18:34N 42°51' E 010°00'2826.5
2016-Jul-25 17:30N 42°23' E 009°57'19 2.1
2016-Jul-25 08:21N 42°42' E 009°52'2126.6
2016-Jul-25 07:33N 43°02' E 009°58'2626.5
2016-Jul-25 06:34N 43°27' E 010°11'8 7.2
2016-Jul-25 05:27N 43°33' E 010°18'0 0.0
2016-Jul-25 04:33N 43°33' E 010°18'3 2.9
2016-Jul-25 03:33N 43°31' E 010°15'2222.2
2016-Jul-25 02:33N 43°10' E 010°05'46 3.8
2016-Jul-24 14:13N 42°24' E 010°12'1926.5
2016-Jul-24 13:30N 42°39' E 010°28'15 7.7
2016-Jul-24 11:32N 42°54' E 010°34'33 3.0
2016-Jul-24 00:16N 42°43' E 009°51'1926.2
2016-Jul-23 23:34N 43°01' E 009°59'2626.3
2016-Jul-23 22:34N 43°26' E 010°10'9 8.7
2016-Jul-23 21:29N 43°33' E 010°18'0 0.4
2016-Jul-23 20:33N 43°33' E 010°18'1919.2
2016-Jul-23 19:34N 43°15' E 010°09'2626.4
2016-Jul-23 18:34N 42°49' E 010°00'3526.5
2016-Jul-23 17:15N 42°15' E 009°56'20 2.3
2016-Jul-23 08:29N 42°35' E 009°51'2426.3
2016-Jul-23 07:34N 42°58' E 009°60'2726.6
2016-Jul-23 06:34N 43°24' E 010°10'11 5.5
2016-Jul-23 04:32N 43°33' E 010°18'3 3.1
2016-Jul-23 03:34N 43°31' E 010°15'2323.1
2016-Jul-23 02:34N 43°09' E 010°05'2424.5
2016-Jul-23 01:33N 42°46' E 009°55'5324.2
2016-Jul-22 23:21N 41°53' E 009°42'2723.7
2016-Jul-22 22:13N 41°26' E 009°42'1623.9
2016-Jul-22 21:33N 41°10' E 009°41'13 3.0
2016-Jul-22 17:23N 40°58' E 009°41'2125.9
2016-Jul-22 16:33N 41°10' E 010°04'2626.1
2016-Jul-22 15:34N 41°26' E 010°31'2625.9
2016-Jul-22 14:34N 41°42' E 010°59'3626.0
2016-Jul-22 13:11N 42°03' E 011°37'9 3.4
2016-Jul-22 10:32N 41°58' E 011°28'2626.6
2016-Jul-22 09:34N 41°42' E 011°00'2726.8
2016-Jul-22 08:33N 41°25' E 010°32'2727.0
2016-Jul-22 07:33N 41°09' E 010°03'28 8.7
2016-Jul-22 04:23N 40°55' E 009°31'910.7
2016-Jul-22 03:34N 41°00' E 009°41'5325.7
2016-Jul-22 01:30N 41°53' E 009°43'4925.2
2016-Jul-21 23:33N 42°42' E 009°51'2525.2
2016-Jul-21 22:34N 43°05' E 010°02'2625.7
2016-Jul-21 21:33N 43°30' E 010°12'5 5.0
2016-Jul-21 20:33N 43°33' E 010°18'0 0.0
2016-Jul-21 19:31N 43°33' E 010°18'6 6.8
2016-Jul-21 18:34N 43°28' E 010°13'2625.7
2016-Jul-21 17:34N 43°03' E 010°05'2626.0
2016-Jul-21 16:33N 42°37' E 009°58'2726.2
2016-Jul-21 15:31N 42°10' E 009°54'2726.4
2016-Jul-21 14:29N 41°43' E 009°49'2526.0
2016-Jul-21 13:32N 41°19' E 009°46'2423.8
2016-Jul-21 12:33N 40°56' E 009°37'100 8.1
2016-Jul-21 00:10N 42°35' E 009°51'1421.3
2016-Jul-20 23:32N 42°49' E 009°56'2121.5
2016-Jul-20 22:33N 43°09' E 010°04'2221.9
2016-Jul-20 21:34N 43°30' E 010°12'5 5.2
2016-Jul-20 20:32N 43°33' E 010°18'0 0.0
2016-Jul-20 19:26N 43°33' E 010°18'6 7.0
2016-Jul-20 18:34N 43°28' E 010°13'2625.9
2016-Jul-20 17:34N 43°03' E 010°05'2626.4
2016-Jul-20 16:33N 42°37' E 009°58'5726.5
2016-Jul-20 14:25N 41°41' E 009°47'2226.1
2016-Jul-20 13:34N 41°19' E 009°45'66 5.1
2016-Jul-20 00:34N 42°25' E 009°46'2221.5
2016-Jul-19 23:34N 42°46' E 009°53'2221.6
2016-Jul-19 22:33N 43°06' E 010°02'2222.0
2016-Jul-19 21:34N 43°27' E 010°11'8 7.8
2016-Jul-19 20:33N 43°33' E 010°18'0 0.0
2016-Jul-19 19:32N 43°33' E 010°18'5 4.9
2016-Jul-19 18:33N 43°30' E 010°14'2626.1
2016-Jul-19 17:33N 43°04' E 010°04'2626.2
2016-Jul-19 16:33N 42°39' E 009°57'6126.5
2016-Jul-19 14:16N 41°39' E 009°47'1926.2
2016-Jul-19 13:33N 41°20' E 009°45'17 1.6
2016-Jul-19 03:14N 41°37' E 009°43'6724.9
2016-Jul-19 00:33N 42°43' E 009°52'2525.0
2016-Jul-18 23:33N 43°07' E 010°02'2524.8
2016-Jul-18 22:34N 43°31' E 010°13'5 4.2
2016-Jul-18 21:28N 43°33' E 010°18'0 0.4
2016-Jul-18 20:33N 43°33' E 010°17'2019.8
2016-Jul-18 19:34N 43°14' E 010°08'2626.2
2016-Jul-18 18:33N 42°49' E 009°60'7926.5
2016-Jul-18 15:33N 41°30' E 009°48'2726.6
2016-Jul-18 14:33N 41°04' E 009°43'9 4.4
2016-Jul-18 12:24N 40°56' E 009°36'1922.9
2016-Jul-18 11:33N 41°14' E 009°42'2827.1
2016-Jul-18 10:32N 41°42' E 009°42'3526.7
2016-Jul-18 09:14N 42°17' E 009°44'1926.7
2016-Jul-18 08:31N 42°36' E 009°49'2626.9
2016-Jul-18 07:34N 43°01' E 009°58'2727.0
2016-Jul-18 06:33N 43°26' E 010°10'9 8.9
2016-Jul-18 05:31N 43°33' E 010°18'0 0.0
2016-Jul-18 04:30N 43°33' E 010°18'4 4.4
2016-Jul-18 03:33N 43°30' E 010°14'2423.7
2016-Jul-18 02:33N 43°08' E 010°04'2524.0
2016-Jul-18 01:30N 42°43' E 009°55'2523.9
2016-Jul-18 00:27N 42°19' E 009°45'2123.9
2016-Jul-17 23:33N 41°58' E 009°43'2823.6
2016-Jul-17 22:23N 41°30' E 009°43'7 1.2
2016-Jul-17 16:29N 41°28' E 009°52'5726.0
2016-Jul-17 14:16N 42°23' E 010°12'1926.2
2016-Jul-17 13:33N 42°39' E 010°27'38 9.1
2016-Jul-17 09:22N 42°05' E 010°02'2826.5
2016-Jul-17 08:19N 41°38' E 009°53'40 5.8
2016-Jul-17 01:29N 42°18' E 009°44'2526.5
2016-Jul-17 00:33N 42°42' E 009°51'2726.8
2016-Jul-16 23:33N 43°07' E 010°02'2625.7
2016-Jul-16 22:33N 43°32' E 010°15'3 2.7
2016-Jul-16 21:29N 43°33' E 010°18'1 1.3
2016-Jul-16 20:34N 43°32' E 010°17'2221.7
2016-Jul-16 19:34N 43°11' E 010°08'2626.0
2016-Jul-16 18:34N 42°46' E 009°59'7 0.7
2016-Jul-16 08:11N 42°43' E 009°51'1726.9
2016-Jul-16 07:33N 42°59' E 009°57'2726.9
2016-Jul-16 06:34N 43°25' E 010°10'10 5.1
2016-Jul-16 04:31N 43°33' E 010°18'3 3.1
2016-Jul-16 03:33N 43°31' E 010°15'2323.0
2016-Jul-16 02:34N 43°09' E 010°05'  
Track history (hours):
 
Tides and Currents Weather Stations Pressure Air Temp Water Temp Dewpoint Dewpoint Depression Visibility Wind Speed Wind Dir Waves Ship Positions

Moby Aki

Last reported at 2016-Jul-25 21:33 UTC. Time now 2016-Jul-25 22:00 UTC.
Position N 43°33' E 010°18'.

Length 175 m; draft 6.8 m.

Type: Ship. MMSI: 247132400.

Date/timePositionNaut miles runAvg speedWind from/ knotsBaromVisibWave heightAir tempDewpointWater temp
2016-Jul-25 21:33N 43°33' E 010°18'0 0.2
2016-Jul-25 20:33N 43°33' E 010°18'1817.8
2016-Jul-25 19:34N 43°17' E 010°08'2626.3
2016-Jul-25 18:34N 42°51' E 010°00'2826.5
2016-Jul-25 17:30N 42°23' E 009°57'19 2.1
2016-Jul-25 08:21N 42°42' E 009°52'2126.6
2016-Jul-25 07:33N 43°02' E 009°58'2626.5
2016-Jul-25 06:34N 43°27' E 010°11'8 7.2
2016-Jul-25 05:27N 43°33' E 010°18'0 0.0
2016-Jul-25 04:33N 43°33' E 010°18'3 2.9
2016-Jul-25 03:33N 43°31' E 010°15'2222.2
2016-Jul-25 02:33N 43°10' E 010°05'46 3.8
2016-Jul-24 14:13N 42°24' E 010°12'1926.5
2016-Jul-24 13:30N 42°39' E 010°28'15 7.7
2016-Jul-24 11:32N 42°54' E 010°34'33 3.0
2016-Jul-24 00:16N 42°43' E 009°51'1926.2
2016-Jul-23 23:34N 43°01' E 009°59'2626.3
2016-Jul-23 22:34N 43°26' E 010°10'9 8.7
2016-Jul-23 21:29N 43°33' E 010°18'0 0.4
2016-Jul-23 20:33N 43°33' E 010°18'1919.2
2016-Jul-23 19:34N 43°15' E 010°09'2626.4
2016-Jul-23 18:34N 42°49' E 010°00'3526.5
2016-Jul-23 17:15N 42°15' E 009°56'20 2.3
2016-Jul-23 08:29N 42°35' E 009°51'2426.3
2016-Jul-23 07:34N 42°58' E 009°60'2726.6
2016-Jul-23 06:34N 43°24' E 010°10'11 5.5
2016-Jul-23 04:32N 43°33' E 010°18'3 3.1
2016-Jul-23 03:34N 43°31' E 010°15'2323.1
2016-Jul-23 02:34N 43°09' E 010°05'2424.5
2016-Jul-23 01:33N 42°46' E 009°55'5324.2
2016-Jul-22 23:21N 41°53' E 009°42'2723.7
2016-Jul-22 22:13N 41°26' E 009°42'1623.9
2016-Jul-22 21:33N 41°10' E 009°41'13 3.0
2016-Jul-22 17:23N 40°58' E 009°41'2125.9
2016-Jul-22 16:33N 41°10' E 010°04'2626.1
2016-Jul-22 15:34N 41°26' E 010°31'2625.9
2016-Jul-22 14:34N 41°42' E 010°59'3626.0
2016-Jul-22 13:11N 42°03' E 011°37'9 3.4
2016-Jul-22 10:32N 41°58' E 011°28'2626.6
2016-Jul-22 09:34N 41°42' E 011°00'2726.8
2016-Jul-22 08:33N 41°25' E 010°32'2727.0
2016-Jul-22 07:33N 41°09' E 010°03'28 8.7
2016-Jul-22 04:23N 40°55' E 009°31'910.7
2016-Jul-22 03:34N 41°00' E 009°41'5325.7
2016-Jul-22 01:30N 41°53' E 009°43'4925.2
2016-Jul-21 23:33N 42°42' E 009°51'2525.2
2016-Jul-21 22:34N 43°05' E 010°02'2625.7
2016-Jul-21 21:33N 43°30' E 010°12'5 5.0
2016-Jul-21 20:33N 43°33' E 010°18'0 0.0
2016-Jul-21 19:31N 43°33' E 010°18'6 6.8
2016-Jul-21 18:34N 43°28' E 010°13'2625.7
2016-Jul-21 17:34N 43°03' E 010°05'2626.0
2016-Jul-21 16:33N 42°37' E 009°58'2726.2
2016-Jul-21 15:31N 42°10' E 009°54'2726.4
2016-Jul-21 14:29N 41°43' E 009°49'2526.0
2016-Jul-21 13:32N 41°19' E 009°46'2423.8
2016-Jul-21 12:33N 40°56' E 009°37'100 8.1
2016-Jul-21 00:10N 42°35' E 009°51'1421.3
2016-Jul-20 23:32N 42°49' E 009°56'2121.5
2016-Jul-20 22:33N 43°09' E 010°04'2221.9
2016-Jul-20 21:34N 43°30' E 010°12'5 5.2
2016-Jul-20 20:32N 43°33' E 010°18'0 0.0
2016-Jul-20 19:26N 43°33' E 010°18'6 7.0
2016-Jul-20 18:34N 43°28' E 010°13'2625.9
2016-Jul-20 17:34N 43°03' E 010°05'2626.4
2016-Jul-20 16:33N 42°37' E 009°58'5726.5
2016-Jul-20 14:25N 41°41' E 009°47'2226.1
2016-Jul-20 13:34N 41°19' E 009°45'66 5.1
2016-Jul-20 00:34N 42°25' E 009°46'2221.5
2016-Jul-19 23:34N 42°46' E 009°53'2221.6
2016-Jul-19 22:33N 43°06' E 010°02'2222.0
2016-Jul-19 21:34N 43°27' E 010°11'8 7.8
2016-Jul-19 20:33N 43°33' E 010°18'0 0.0
2016-Jul-19 19:32N 43°33' E 010°18'5 4.9
2016-Jul-19 18:33N 43°30' E 010°14'2626.1
2016-Jul-19 17:33N 43°04' E 010°04'2626.2
2016-Jul-19 16:33N 42°39' E 009°57'6126.5
2016-Jul-19 14:16N 41°39' E 009°47'1926.2
2016-Jul-19 13:33N 41°20' E 009°45'17 1.6
2016-Jul-19 03:14N 41°37' E 009°43'6724.9
2016-Jul-19 00:33N 42°43' E 009°52'2525.0
2016-Jul-18 23:33N 43°07' E 010°02'2524.8
2016-Jul-18 22:34N 43°31' E 010°13'5 4.2
2016-Jul-18 21:28N 43°33' E 010°18'0 0.4
2016-Jul-18 20:33N 43°33' E 010°17'2019.8
2016-Jul-18 19:34N 43°14' E 010°08'2626.2
2016-Jul-18 18:33N 42°49' E 009°60'7926.5
2016-Jul-18 15:33N 41°30' E 009°48'2726.6
2016-Jul-18 14:33N 41°04' E 009°43'9 4.4
2016-Jul-18 12:24N 40°56' E 009°36'1922.9
2016-Jul-18 11:33N 41°14' E 009°42'2827.1
2016-Jul-18 10:32N 41°42' E 009°42'3526.7
2016-Jul-18 09:14N 42°17' E 009°44'1926.7
2016-Jul-18 08:31N 42°36' E 009°49'2626.9
2016-Jul-18 07:34N 43°01' E 009°58'2727.0
2016-Jul-18 06:33N 43°26' E 010°10'9 8.9
2016-Jul-18 05:31N 43°33' E 010°18'0 0.0
2016-Jul-18 04:30N 43°33' E 010°18'4 4.4
2016-Jul-18 03:33N 43°30' E 010°14'2423.7
2016-Jul-18 02:33N 43°08' E 010°04'2524.0
2016-Jul-18 01:30N 42°43' E 009°55'2523.9
2016-Jul-18 00:27N 42°19' E 009°45'2123.9
2016-Jul-17 23:33N 41°58' E 009°43'2823.6
2016-Jul-17 22:23N 41°30' E 009°43'7 1.2
2016-Jul-17 16:29N 41°28' E 009°52'5726.0
2016-Jul-17 14:16N 42°23' E 010°12'1926.2
2016-Jul-17 13:33N 42°39' E 010°27'38 9.1
2016-Jul-17 09:22N 42°05' E 010°02'2826.5
2016-Jul-17 08:19N 41°38' E 009°53'40 5.8
2016-Jul-17 01:29N 42°18' E 009°44'2526.5
2016-Jul-17 00:33N 42°42' E 009°51'2726.8
2016-Jul-16 23:33N 43°07' E 010°02'2625.7
2016-Jul-16 22:33N 43°32' E 010°15'3 2.7
2016-Jul-16 21:29N 43°33' E 010°18'1 1.3
2016-Jul-16 20:34N 43°32' E 010°17'2221.7
2016-Jul-16 19:34N 43°11' E 010°08'2626.0
2016-Jul-16 18:34N 42°46' E 009°59'7 0.7
2016-Jul-16 08:11N 42°43' E 009°51'1726.9
2016-Jul-16 07:33N 42°59' E 009°57'2726.9
2016-Jul-16 06:34N 43°25' E 010°10'10 5.1
2016-Jul-16 04:31N 43°33' E 010°18'3 3.1
2016-Jul-16 03:33N 43°31' E 010°15'2323.0
2016-Jul-16 02:34N 43°09' E 010°05'  

Dump ship's entire track history